createdAt,value
2019-03-13T00:00:26.012Z,99798.22
2019-03-13T00:02:58.314Z,99792.12
2019-03-13T00:05:30.487Z,99782.69
2019-03-13T00:08:02.382Z,99779.27
2019-03-13T00:10:34.332Z,99782.23
2019-03-13T00:13:06.892Z,99778.52
2019-03-13T00:15:39.193Z,99776.64
2019-03-13T00:18:11.132Z,99780.31
2019-03-13T00:20:43.112Z,99774.06
2019-03-13T00:23:15.361Z,99771.73
2019-03-13T00:25:48.132Z,99769.89
2019-03-13T00:28:20.072Z,99761.98
2019-03-13T00:30:52.010Z,99765.01
2019-03-13T00:33:24.220Z,99764.56
2019-03-13T00:35:56.210Z,99775.55
2019-03-13T00:38:28.144Z,99778.20
2019-03-13T00:41:00.164Z,99772.76
2019-03-13T00:43:32.383Z,99770.41
2019-03-13T00:46:04.346Z,99774.13
2019-03-13T00:48:36.283Z,99776.72
2019-03-13T00:51:08.236Z,99761.41
2019-03-13T00:53:40.174Z,99764.45
2019-03-13T00:56:12.106Z,99761.84
2019-03-13T00:58:44.043Z,99760.59
2019-03-13T01:01:17.626Z,99760.38
2019-03-13T01:03:51.194Z,99749.22
2019-03-13T01:06:24.794Z,99752.64
2019-03-13T01:08:56.736Z,99746.85
2019-03-13T01:11:28.709Z,99746.17
2019-03-13T01:14:00.821Z,99737.71
2019-03-13T01:16:32.772Z,99736.34
2019-03-13T01:19:04.710Z,99728.77
2019-03-13T01:21:36.661Z,99733.97
2019-03-13T01:24:08.613Z,99733.64
2019-03-13T01:26:40.620Z,99722.34
2019-03-13T01:29:12.554Z,99709.79
2019-03-13T01:31:49.049Z,99716.39
2019-03-13T01:34:37.573Z,99714.04
2019-03-13T01:37:09.519Z,99716.81
2019-03-13T01:39:41.451Z,99707.34
2019-03-13T01:42:13.970Z,99702.14
2019-03-13T01:44:45.979Z,99695.39
2019-03-13T01:47:17.918Z,99692.44
2019-03-13T01:49:50.049Z,99697.97
2019-03-13T01:52:22.147Z,99697.30
2019-03-13T01:54:55.018Z,99697.30
2019-03-13T01:57:27.723Z,99696.45
2019-03-13T02:00:00.365Z,99704.86
2019-03-13T02:02:32.578Z,99728.14
2019-03-13T02:05:05.554Z,99748.39
2019-03-13T02:07:37.746Z,99759.83
2019-03-13T02:10:12.696Z,99771.45
2019-03-13T02:12:45.007Z,99777.50
2019-03-13T04:29:13.975Z,99959.69
2019-03-13T04:31:46.273Z,99962.03
2019-03-13T04:34:18.234Z,99962.91
2019-03-13T04:36:50.293Z,99966.87
2019-03-13T04:39:22.205Z,99965.41
2019-03-13T04:41:54.141Z,99970.05
2019-03-13T04:44:26.450Z,99963.59
2019-03-13T04:46:58.405Z,99967.12
2019-03-13T04:49:30.678Z,99964.63
2019-03-13T04:52:02.613Z,99968.25
2019-03-13T04:54:34.573Z,99966.09
2019-03-13T04:57:06.508Z,99964.19
2019-03-13T04:59:38.472Z,99954.95
2019-03-13T05:02:10.409Z,99953.44
2019-03-13T05:04:42.374Z,99954.95
2019-03-13T05:07:14.329Z,99949.70
2019-03-13T05:09:46.280Z,99953.11
2019-03-13T05:12:18.219Z,99958.53
2019-03-13T05:14:50.191Z,99963.58
2019-03-13T05:17:22.133Z,99965.76
2019-03-13T05:19:54.123Z,99961.27
2019-03-13T05:22:26.055Z,99968.05
2019-03-13T05:24:58.105Z,99970.70
2019-03-13T05:27:30.107Z,99958.89
2019-03-13T05:30:02.059Z,99967.62
2019-03-13T05:32:34.277Z,99974.92
2019-03-13T05:35:07.541Z,99974.49
2019-03-13T05:37:39.499Z,99964.63
2019-03-13T05:40:12.859Z,99975.88
2019-03-13T05:42:44.795Z,99970.37
2019-03-13T05:45:16.820Z,99972.43
2019-03-13T05:47:48.777Z,99977.62
2019-03-13T05:50:20.728Z,99967.45
2019-03-13T05:52:52.675Z,99970.87
2019-03-13T05:55:24.753Z,99966.30
2019-03-13T05:57:56.703Z,99977.28
2019-03-13T06:00:29.521Z,99971.02
2019-03-13T06:03:01.465Z,99970.28
2019-03-13T06:05:33.561Z,99978.55
2019-03-13T06:08:05.585Z,99968.44
2019-03-13T06:10:37.526Z,99966.34
2019-03-13T06:13:09.486Z,99971.52
2019-03-13T06:15:41.438Z,99955.62
2019-03-13T06:18:13.480Z,99948.29
2019-03-13T06:20:45.452Z,99947.08
2019-03-13T06:23:17.398Z,99955.00
2019-03-13T06:25:49.352Z,99951.07
2019-03-13T06:28:21.291Z,99955.16
2019-03-13T06:30:53.253Z,99959.05
2019-03-13T06:33:25.187Z,99970.95
2019-03-13T06:35:57.174Z,99974.91
2019-03-13T06:38:29.425Z,99971.78
2019-03-13T06:41:05.002Z,99965.08
2019-03-13T06:43:35.706Z,99969.38
2019-03-13T06:46:07.651Z,99960.56
2019-03-13T06:48:39.600Z,99959.49
2019-03-13T06:51:11.543Z,99967.04
2019-03-13T06:53:43.543Z,99955.52
2019-03-13T06:56:15.490Z,99959.91
2019-03-13T06:58:49.075Z,99956.95
2019-03-13T07:01:28.625Z,99951.51
2019-03-13T07:04:21.252Z,99954.47
2019-03-13T07:07:10.010Z,99952.61
2019-03-13T07:09:58.543Z,99956.22
2019-03-13T07:12:32.140Z,99953.56
2019-03-13T07:15:15.656Z,99963.84
2019-03-13T07:18:05.319Z,99950.00
2019-03-13T07:20:51.331Z,99957.89
2019-03-13T07:23:41.427Z,99951.94
2019-03-13T07:26:15.338Z,99956.05
2019-03-13T07:28:52.525Z,99960.35
2019-03-13T07:31:26.337Z,99955.97
2019-03-13T07:33:59.916Z,99951.73
2019-03-13T07:36:42.627Z,99956.67
2019-03-13T07:39:22.320Z,99958.55
2019-03-13T07:41:58.836Z,99958.35
2019-03-13T07:44:41.469Z,99961.48
2019-03-13T07:47:15.118Z,99962.73
2019-03-13T07:49:48.741Z,99953.79
2019-03-13T07:52:40.599Z,99954.64
2019-03-13T07:55:16.892Z,99951.16
2019-03-13T07:57:50.535Z,99947.05
2019-03-13T08:00:25.141Z,99956.88
2019-03-13T08:02:58.816Z,99949.24
2019-03-13T08:05:38.359Z,99952.30
2019-03-13T08:08:12.009Z,99944.46
2019-03-13T08:11:01.772Z,99951.35
2019-03-13T08:13:51.770Z,99958.27
2019-03-13T08:16:28.243Z,99952.70
2019-03-13T08:19:17.103Z,99955.64
2019-03-13T08:22:07.038Z,99948.06
2019-03-13T08:24:55.617Z,99956.26
2019-03-13T08:27:44.089Z,99946.03
2019-03-13T08:30:20.193Z,99933.23
2019-03-13T08:33:05.385Z,99933.26
2019-03-13T08:35:42.078Z,99940.45
2019-03-13T08:38:24.756Z,99928.72
2019-03-13T08:41:04.273Z,99937.09
2019-03-13T08:43:53.931Z,99925.31
2019-03-13T08:46:33.418Z,99925.91
2019-03-13T08:49:10.004Z,99935.72
2019-03-13T08:51:49.090Z,99928.05
2019-03-13T08:54:28.418Z,99932.77
2019-03-13T08:57:02.007Z,99925.09
2019-03-13T08:59:36.192Z,99932.25
2019-03-13T09:02:10.103Z,99924.32
2019-03-13T09:04:47.044Z,99918.79
2019-03-13T09:07:32.751Z,99927.14
2019-03-13T09:10:25.971Z,99913.84
2019-03-13T09:13:05.475Z,99909.02
2019-03-13T09:15:50.802Z,99914.77
2019-03-13T09:18:33.770Z,99915.13
2019-03-13T09:21:13.103Z,99911.00
2019-03-13T09:23:55.576Z,99906.56
2019-03-13T09:26:29.175Z,99899.80
2019-03-13T09:29:18.843Z,99894.80
2019-03-13T09:31:55.330Z,99896.73
2019-03-13T09:34:37.837Z,99899.72
2019-03-13T09:37:23.670Z,99902.54
2019-03-13T09:39:57.248Z,99900.94
2019-03-13T09:42:36.766Z,99901.79
2019-03-13T09:45:12.796Z,99897.23
2019-03-13T09:47:46.392Z,99892.21
2019-03-13T09:50:22.671Z,99890.36
2019-03-13T09:53:05.221Z,99893.16
2019-03-13T09:55:39.055Z,99894.37
2019-03-13T09:58:28.586Z,99880.53
2019-03-13T10:01:08.198Z,99883.52
2019-03-13T10:03:44.441Z,99905.64
2019-03-13T10:06:18.082Z,99887.33
2019-03-13T10:09:00.658Z,99881.59
2019-03-13T10:11:34.279Z,99887.79
2019-03-13T10:14:07.895Z,99885.32
2019-03-13T10:16:44.237Z,99876.59
2019-03-13T10:19:33.011Z,99879.06
2019-03-13T10:22:09.485Z,99875.08
2019-03-13T10:24:43.103Z,99871.59
2019-03-13T10:27:34.525Z,99869.77
2019-03-13T10:30:14.774Z,99874.36
2019-03-13T10:33:04.388Z,99887.66
2019-03-13T10:35:37.981Z,99865.27
2019-03-13T10:38:17.474Z,99873.36
2019-03-13T10:40:59.987Z,99865.84
2019-03-13T10:43:39.686Z,99864.05
2019-03-13T10:46:19.375Z,99875.19
2019-03-13T10:48:55.774Z,99873.78
2019-03-13T10:51:41.305Z,99872.95
2019-03-13T10:54:17.871Z,99875.45
2019-03-13T10:56:54.404Z,99879.45
2019-03-13T10:59:28.084Z,99877.98
2019-03-13T11:02:17.901Z,99877.67
2019-03-13T11:04:57.376Z,99883.45
2019-03-13T11:07:33.937Z,99871.17
2019-03-13T11:10:17.351Z,99880.27
2019-03-13T11:12:53.458Z,99887.73
2019-03-13T11:15:32.780Z,99880.09
2019-03-13T11:18:22.450Z,99865.47
2019-03-13T11:20:59.010Z,99875.69
2019-03-13T11:23:32.656Z,99865.56
2019-03-13T11:26:17.801Z,99866.72
2019-03-13T11:29:09.664Z,99862.84
2019-03-13T11:31:43.259Z,99860.52
2019-03-13T11:34:22.795Z,99850.77
2019-03-13T11:37:05.265Z,99850.45
2019-03-13T11:39:38.890Z,99858.08
2019-03-13T11:42:12.538Z,99848.36
2019-03-13T11:44:49.144Z,99847.84
2019-03-13T11:47:41.868Z,99848.23
2019-03-13T11:50:22.576Z,99843.92
2019-03-13T11:53:02.022Z,99841.96
2019-03-13T11:55:35.621Z,99838.66
2019-03-13T11:58:15.286Z,99837.00
2019-03-13T12:01:05.177Z,99836.92
2019-03-13T12:03:54.947Z,99829.02
2019-03-13T12:06:28.560Z,99827.27
2019-03-13T12:09:08.028Z,99828.02
2019-03-13T12:11:44.326Z,99822.23
2019-03-13T12:14:29.677Z,99819.58
2019-03-13T12:17:09.102Z,99810.44
2019-03-13T12:19:42.779Z,99798.75
2019-03-13T12:22:19.141Z,99806.35
2019-03-13T12:25:09.134Z,99794.31
2019-03-13T12:27:48.995Z,99793.69
2019-03-13T12:30:39.733Z,99799.48
2019-03-13T12:33:29.413Z,99795.97
2019-03-13T12:36:09.094Z,99794.86
2019-03-13T12:38:45.659Z,99790.36
2019-03-13T12:41:36.028Z,99782.02
2019-03-13T12:44:18.801Z,99779.79
2019-03-13T12:47:01.440Z,99778.95
2019-03-13T12:49:38.795Z,99771.23
2019-03-13T12:52:21.358Z,99782.59
2019-03-13T12:55:10.166Z,99772.34
2019-03-13T12:57:43.762Z,99777.53
2019-03-13T13:00:37.737Z,99770.47
2019-03-13T13:03:14.220Z,99766.83
2019-03-13T13:05:57.252Z,99759.64
2019-03-13T13:08:33.548Z,99759.69
2019-03-13T13:11:07.367Z,99767.81
2019-03-13T13:13:56.217Z,99772.06
2019-03-13T13:16:41.748Z,99771.48
2019-03-13T13:19:13.725Z,99767.08
2019-03-13T13:21:45.806Z,99769.57
2019-03-13T13:24:18.162Z,99764.09
2019-03-13T13:26:50.503Z,99762.13
2019-03-13T13:29:22.539Z,99773.07
2019-03-13T13:31:55.428Z,99771.95
2019-03-13T13:34:27.719Z,99770.31
2019-03-13T13:36:59.725Z,99766.30
2019-03-13T13:39:31.704Z,99757.73
2019-03-13T13:42:03.645Z,99747.64
2019-03-13T13:44:35.689Z,99739.48
2019-03-13T13:47:08.087Z,99735.06
2019-03-13T13:49:40.035Z,99733.23
2019-03-13T13:52:12.292Z,99727.35
2019-03-13T13:54:44.302Z,99725.55
2019-03-13T13:57:16.521Z,99728.25
2019-03-13T13:59:48.478Z,99718.88
2019-03-13T14:02:20.449Z,99712.27
2019-03-13T14:04:52.407Z,99710.47
2019-03-13T14:07:24.352Z,99722.39
2019-03-13T14:09:56.333Z,99719.20
2019-03-13T14:12:28.316Z,99715.94
2019-03-13T14:15:00.672Z,99707.20
2019-03-13T14:17:32.664Z,99707.16
2019-03-13T14:20:06.564Z,99733.22
2019-03-13T14:22:38.785Z,99722.15
2019-03-13T14:25:13.948Z,99721.95
2019-03-13T14:27:45.935Z,99718.28
2019-03-13T14:30:22.780Z,99721.02
2019-03-13T14:32:54.810Z,99726.20
2019-03-13T14:35:30.918Z,99723.02
2019-03-13T14:38:03.462Z,99723.02
2019-03-13T14:40:35.642Z,99721.50
2019-03-13T14:43:07.671Z,99716.27
2019-03-13T14:45:39.609Z,99722.84
2019-03-13T14:48:11.575Z,99718.15
2019-03-13T14:50:43.853Z,99725.17
2019-03-13T14:53:15.795Z,99721.98
2019-03-13T14:55:48.048Z,99710.23
2019-03-13T14:58:20.055Z,99713.36
2019-03-13T15:00:52.252Z,99704.58
2019-03-13T15:03:27.630Z,99652.08
2019-03-13T15:05:59.629Z,99698.90
2019-03-13T15:08:31.607Z,99706.58
2019-03-13T15:11:03.808Z,99700.86
2019-03-13T15:13:35.743Z,99666.81
2019-03-13T15:16:07.795Z,99694.69
2019-03-13T15:18:39.736Z,99709.19
2019-03-13T15:21:11.946Z,99701.30
2019-03-13T15:23:43.913Z,99702.94
2019-03-13T15:26:15.864Z,99697.09
2019-03-13T15:28:48.123Z,99690.39
2019-03-13T15:31:20.087Z,99677.77
2019-03-13T15:33:52.320Z,99680.27
2019-03-13T15:36:24.281Z,99686.13
2019-03-13T15:38:56.263Z,99689.73
2019-03-13T15:41:28.448Z,99676.78
2019-03-13T15:44:00.739Z,99672.41
2019-03-13T15:46:33.017Z,99678.31
2019-03-13T15:49:05.483Z,99672.39
2019-03-13T15:51:38.752Z,99669.28
2019-03-13T15:54:11.035Z,99654.88
2019-03-13T15:56:43.321Z,99657.77
2019-03-13T15:59:15.569Z,99662.48
2019-03-13T16:01:47.506Z,99655.63
2019-03-13T16:04:19.930Z,99653.17
2019-03-13T16:06:51.875Z,99649.41
2019-03-13T16:09:23.814Z,99642.09
2019-03-13T16:11:55.759Z,99643.39
2019-03-13T16:14:28.808Z,99646.77
2019-03-13T16:17:01.022Z,99650.81
2019-03-13T16:19:32.963Z,99653.57
2019-03-13T16:22:06.187Z,99653.69
2019-03-13T16:24:38.210Z,99645.69
2019-03-13T16:27:10.248Z,99649.69
2019-03-13T16:29:42.525Z,99646.09
2019-03-13T16:32:16.731Z,99642.56
2019-03-13T16:34:48.681Z,99639.83
2019-03-13T16:37:20.965Z,99634.86
2019-03-13T16:39:53.339Z,99639.78
2019-03-13T16:42:25.281Z,99630.77
2019-03-13T16:44:57.294Z,99632.02
2019-03-13T16:47:29.232Z,99624.98
2019-03-13T16:50:01.387Z,99626.53
2019-03-13T16:52:33.390Z,99622.00
2019-03-13T16:55:09.276Z,99623.14
2019-03-13T16:57:41.238Z,99630.67
2019-03-13T17:00:31.706Z,99635.64
2019-03-13T17:03:03.779Z,99634.29
2019-03-13T17:05:35.728Z,99638.24
2019-03-13T17:08:07.698Z,99635.42
2019-03-13T17:10:39.940Z,99611.50
2019-03-13T17:13:11.900Z,99630.70
2019-03-13T17:15:43.839Z,99635.19
2019-03-13T17:18:16.138Z,99632.49
2019-03-13T17:20:48.443Z,99628.41
2019-03-13T17:23:20.412Z,99633.55
2019-03-13T17:25:52.423Z,99630.77
2019-03-13T17:28:24.948Z,99625.64
2019-03-13T17:30:56.888Z,99625.00
2019-03-13T17:33:28.831Z,99632.20
2019-03-13T17:36:00.763Z,99631.72
2019-03-13T17:38:34.343Z,99632.66
2019-03-13T17:41:06.380Z,99636.64
2019-03-13T17:43:39.850Z,99636.25
2019-03-13T17:46:12.051Z,99624.91
2019-03-13T17:48:44.018Z,99624.24
2019-03-13T17:51:16.329Z,99635.52
2019-03-13T17:53:48.853Z,99626.95
2019-03-13T17:56:21.126Z,99625.47
2019-03-13T17:58:53.409Z,99624.11
2019-03-13T18:01:25.360Z,99630.44
2019-03-13T18:03:57.291Z,99624.77
2019-03-13T18:06:31.229Z,99623.88
2019-03-13T18:09:04.836Z,99623.67
2019-03-13T18:11:37.422Z,99631.02
2019-03-13T18:14:09.696Z,99619.81
2019-03-13T18:16:42.122Z,99627.23
2019-03-13T18:19:14.133Z,99627.93
2019-03-13T18:21:46.108Z,99624.48
2019-03-13T18:24:18.049Z,99619.27
2019-03-13T18:26:50.347Z,99618.63
2019-03-13T18:29:22.692Z,99609.16
2019-03-13T18:31:55.092Z,99603.95
2019-03-13T18:34:27.010Z,99600.44
2019-03-13T18:36:59.068Z,99608.84
2019-03-13T18:39:31.408Z,99603.98
2019-03-13T18:42:03.638Z,99599.21
2019-03-13T18:44:37.917Z,99601.81
2019-03-13T18:47:09.926Z,99594.03
2019-03-13T18:49:41.877Z,99593.38
2019-03-13T18:52:13.819Z,99590.61
2019-03-13T18:54:45.787Z,99586.37
2019-03-13T18:57:17.994Z,99588.53
2019-03-13T18:59:49.938Z,99585.84
2019-03-13T19:02:22.122Z,99583.77
2019-03-13T19:04:54.147Z,99583.97
2019-03-13T19:07:26.351Z,99579.40
2019-03-13T19:09:58.358Z,99583.43
2019-03-13T19:12:30.586Z,99573.96
2019-03-13T19:15:02.558Z,99581.37
2019-03-13T19:17:34.502Z,99579.83
2019-03-13T19:20:12.128Z,99578.19
2019-03-13T19:22:44.687Z,99583.00
2019-03-13T19:25:17.439Z,99575.55
2019-03-13T19:27:49.512Z,99581.03
2019-03-13T19:30:37.383Z,99581.07
2019-03-13T19:33:07.966Z,99579.21
2019-03-13T19:35:39.999Z,99566.66
2019-03-13T19:38:15.302Z,99570.02
2019-03-13T19:40:47.410Z,99562.64
2019-03-13T19:43:19.350Z,99557.19
2019-03-13T19:45:51.619Z,99556.05
2019-03-13T19:48:23.553Z,99560.16
2019-03-13T19:50:56.679Z,99552.83
2019-03-13T19:53:28.738Z,99557.97
2019-03-13T19:56:00.690Z,99549.90
2019-03-13T19:58:32.636Z,99543.79
2019-03-13T20:01:05.823Z,99536.40
2019-03-13T20:03:54.664Z,99539.88
2019-03-13T20:06:17.968Z,99534.50
2019-03-13T20:08:50.237Z,99533.11
2019-03-13T20:11:22.167Z,99535.39
2019-03-13T20:13:54.126Z,99526.25
2019-03-13T20:16:26.061Z,99516.77
2019-03-13T20:18:58.003Z,99518.16
2019-03-13T20:21:31.336Z,99513.45
2019-03-13T20:24:03.425Z,99516.83
2019-03-13T20:26:35.358Z,99514.75
2019-03-13T20:29:07.600Z,99509.19
2019-03-13T20:31:39.540Z,99502.29
2019-03-13T20:34:11.478Z,99502.16
2019-03-13T20:36:43.421Z,99511.69
2019-03-13T20:39:15.362Z,99503.13
2019-03-13T20:41:47.324Z,99501.99
2019-03-13T20:44:19.663Z,99500.69
2019-03-13T20:46:51.598Z,99491.07
2019-03-13T20:49:23.531Z,99498.91
2019-03-13T20:51:55.545Z,99499.89
2019-03-13T20:54:27.854Z,99496.66
2019-03-13T20:56:59.790Z,99491.61
2019-03-13T20:59:32.763Z,99498.45
2019-03-13T21:02:05.032Z,99501.35
2019-03-13T21:04:38.108Z,99502.17
2019-03-13T21:07:10.165Z,99509.00
2019-03-13T21:09:42.107Z,99511.86
2019-03-13T21:12:14.071Z,99519.75
2019-03-13T21:14:46.010Z,99512.98
2019-03-13T21:17:18.040Z,99514.49
2019-03-13T21:19:50.246Z,99517.78
2019-03-13T21:22:22.275Z,99516.20
2019-03-13T21:24:54.508Z,99519.69
2019-03-13T21:27:26.459Z,99520.00
2019-03-13T21:29:58.824Z,99513.83
2019-03-13T21:32:30.847Z,99524.23
2019-03-13T21:35:03.777Z,99522.19
2019-03-13T21:37:35.794Z,99519.29
2019-03-13T21:40:24.970Z,99520.86
2019-03-13T21:42:57.008Z,99516.86
2019-03-13T21:45:40.659Z,99523.25
2019-03-13T21:48:02.911Z,99518.77
2019-03-13T21:50:35.165Z,99525.66
2019-03-13T21:53:07.636Z,99529.61
2019-03-13T21:55:39.561Z,99520.42
2019-03-13T21:58:11.823Z,99529.50
2019-03-13T22:00:43.940Z,99528.00
2019-03-13T22:03:28.026Z,99538.19
2019-03-13T22:05:50.069Z,99549.73
2019-03-13T22:08:23.365Z,99536.78
2019-03-13T22:10:55.384Z,99537.19
2019-03-13T22:13:27.873Z,99544.23
2019-03-13T22:16:00.279Z,99548.59
2019-03-13T22:18:33.366Z,99549.61
2019-03-13T22:21:05.320Z,99554.34
2019-03-13T22:23:37.258Z,99556.51
2019-03-13T22:26:09.273Z,99560.08
2019-03-13T22:28:41.207Z,99556.98
2019-03-13T22:31:13.516Z,99564.53
2019-03-13T22:33:45.826Z,99554.77
2019-03-13T22:36:17.770Z,99565.36
2019-03-13T22:38:49.713Z,99560.97
2019-03-13T22:41:22.313Z,99575.63
2019-03-13T22:43:54.545Z,99568.22
2019-03-13T22:46:26.489Z,99572.78
2019-03-13T22:48:59.307Z,99581.34
2019-03-13T22:51:31.241Z,99585.22
2019-03-13T22:54:03.184Z,99588.44
2019-03-13T22:56:35.188Z,99589.20
2019-03-13T22:59:07.139Z,99580.53
2019-03-13T23:01:42.993Z,99595.84
2019-03-13T23:04:14.997Z,99605.86
2019-03-13T23:06:46.936Z,99611.28
2019-03-13T23:09:18.882Z,99605.45
2019-03-13T23:11:50.823Z,99604.72
2019-03-13T23:14:22.771Z,99613.48
2019-03-13T23:16:54.716Z,99615.88
2019-03-13T23:19:26.668Z,99622.16
2019-03-13T23:21:58.606Z,99630.23
2019-03-13T23:24:30.572Z,99639.76
2019-03-13T23:27:02.944Z,99642.13
2019-03-13T23:29:34.898Z,99638.07
2019-03-13T23:32:07.015Z,99651.22
2019-03-13T23:34:38.957Z,99649.57
2019-03-13T23:37:10.891Z,99649.57
2019-03-13T23:39:42.849Z,99653.16
2019-03-13T23:42:14.955Z,99661.59
2019-03-13T23:44:46.989Z,99652.72
2019-03-13T23:47:19.108Z,99676.87
2019-03-13T23:49:51.219Z,99666.78
2019-03-13T23:52:25.718Z,99684.25
2019-03-13T23:54:56.907Z,99686.52
2019-03-13T23:57:28.930Z,99686.29
